sensor_id;sensor_type;location;lat;lon;timestamp;pressure;altitude;pressure_sealevel;temperature;humidity
18988;BME280;5494;51.796;10.952;2023-07-13T00:01:14;98803.41;;;17.49;96.66
18988;BME280;5494;51.796;10.952;2023-07-13T00:03:44;98803.78;;;17.44;97.73
18988;BME280;5494;51.796;10.952;2023-07-13T00:06:12;98804.88;;;17.42;98.45
18988;BME280;5494;51.796;10.952;2023-07-13T00:08:40;98804.66;;;17.33;99.62
18988;BME280;5494;51.796;10.952;2023-07-13T00:11:08;98813.50;;;17.32;100.00
18988;BME280;5494;51.796;10.952;2023-07-13T00:13:37;98824.97;;;17.31;100.00
18988;BME280;5494;51.796;10.952;2023-07-13T00:16:07;98839.31;;;17.27;100.00
18988;BME280;5494;51.796;10.952;2023-07-13T00:18:36;98835.84;;;17.27;100.00
18988;BME280;5494;51.796;10.952;2023-07-13T00:21:06;98842.13;;;17.36;100.00
18988;BME280;5494;51.796;10.952;2023-07-13T00:23:36;98846.47;;;17.25;100.00
18988;BME280;5494;51.796;10.952;2023-07-13T00:26:07;98842.28;;;17.23;100.00
18988;BME280;5494;51.796;10.952;2023-07-13T00:28:36;98835.97;;;17.25;100.00
18988;BME280;5494;51.796;10.952;2023-07-13T00:31:06;98834.56;;;17.21;100.00
18988;BME280;5494;51.796;10.952;2023-07-13T00:33:35;98835.03;;;17.15;100.00
18988;BME280;5494;51.796;10.952;2023-07-13T00:36:06;98831.94;;;17.10;100.00
18988;BME280;5494;51.796;10.952;2023-07-13T00:38:34;98827.53;;;17.11;100.00
18988;BME280;5494;51.796;10.952;2023-07-13T00:41:03;98824.78;;;17.12;100.00
18988;BME280;5494;51.796;10.952;2023-07-13T00:43:32;98830.53;;;17.06;100.00
18988;BME280;5494;51.796;10.952;2023-07-13T00:46:21;98832.06;;;16.98;100.00
18988;BME280;5494;51.796;10.952;2023-07-13T00:48:51;98837.72;;;16.93;100.00
18988;BME280;5494;51.796;10.952;2023-07-13T00:51:28;98835.78;;;16.95;100.00
18988;BME280;5494;51.796;10.952;2023-07-13T00:54:05;98834.31;;;17.02;100.00
18988;BME280;5494;51.796;10.952;2023-07-13T00:56:35;98839.47;;;17.04;100.00
18988;BME280;5494;51.796;10.952;2023-07-13T00:59:08;98834.66;;;17.09;100.00
18988;BME280;5494;51.796;10.952;2023-07-13T01:01:39;98826.69;;;17.10;100.00
18988;BME280;5494;51.796;10.952;2023-07-13T01:04:07;98821.78;;;17.17;100.00
18988;BME280;5494;51.796;10.952;2023-07-13T01:06:38;98833.84;;;17.08;100.00
18988;BME280;5494;51.796;10.952;2023-07-13T01:09:08;98828.34;;;17.11;100.00
18988;BME280;5494;51.796;10.952;2023-07-13T01:11:38;98822.72;;;17.16;100.00
18988;BME280;5494;51.796;10.952;2023-07-13T01:14:07;98825.72;;;17.11;100.00
18988;BME280;5494;51.796;10.952;2023-07-13T01:16:37;98818.06;;;17.08;100.00
18988;BME280;5494;51.796;10.952;2023-07-13T01:19:22;98821.44;;;17.10;100.00
18988;BME280;5494;51.796;10.952;2023-07-13T01:22:05;98819.53;;;17.12;100.00
18988;BME280;5494;51.796;10.952;2023-07-13T01:24:36;98812.22;;;17.16;98.78
18988;BME280;5494;51.796;10.952;2023-07-13T01:27:06;98820.19;;;17.25;97.29
18988;BME280;5494;51.796;10.952;2023-07-13T01:29:37;98818.31;;;17.16;96.56
18988;BME280;5494;51.796;10.952;2023-07-13T01:32:11;98814.84;;;17.16;96.24
18988;BME280;5494;51.796;10.952;2023-07-13T01:34:40;98819.75;;;17.09;98.90
18988;BME280;5494;51.796;10.952;2023-07-13T01:37:11;98813.66;;;17.09;100.00
18988;BME280;5494;51.796;10.952;2023-07-13T01:39:40;98813.66;;;17.09;100.00
18988;BME280;5494;51.796;10.952;2023-07-13T01:42:08;98806.38;;;17.01;100.00
18988;BME280;5494;51.796;10.952;2023-07-13T01:44:36;98814.75;;;16.95;100.00
18988;BME280;5494;51.796;10.952;2023-07-13T01:47:05;98810.00;;;17.00;100.00
18988;BME280;5494;51.796;10.952;2023-07-13T01:49:33;98812.13;;;17.06;98.51
18988;BME280;5494;51.796;10.952;2023-07-13T01:52:01;98818.91;;;17.09;92.96
18988;BME280;5494;51.796;10.952;2023-07-13T01:54:32;98822.03;;;17.14;91.69
18988;BME280;5494;51.796;10.952;2023-07-13T01:57:01;98816.78;;;17.14;90.69
18988;BME280;5494;51.796;10.952;2023-07-13T01:59:30;98817.38;;;17.06;90.87
18988;BME280;5494;51.796;10.952;2023-07-13T02:01:59;98816.78;;;17.03;90.63
18988;BME280;5494;51.796;10.952;2023-07-13T02:04:28;98815.22;;;17.11;91.59
18988;BME280;5494;51.796;10.952;2023-07-13T02:06:56;98813.38;;;17.23;87.16
18988;BME280;5494;51.796;10.952;2023-07-13T02:09:24;98815.00;;;17.14;85.75
18988;BME280;5494;51.796;10.952;2023-07-13T02:11:53;98813.53;;;17.10;88.28
18988;BME280;5494;51.796;10.952;2023-07-13T02:14:21;98809.84;;;17.02;92.13
18988;BME280;5494;51.796;10.952;2023-07-13T02:16:49;98823.72;;;16.92;94.16
18988;BME280;5494;51.796;10.952;2023-07-13T02:19:17;98829.00;;;16.92;98.35
18988;BME280;5494;51.796;10.952;2023-07-13T02:21:45;98821.34;;;16.89;97.42
18988;BME280;5494;51.796;10.952;2023-07-13T02:24:14;98819.09;;;16.85;86.29
18988;BME280;5494;51.796;10.952;2023-07-13T02:26:44;98810.84;;;16.78;83.63
18988;BME280;5494;51.796;10.952;2023-07-13T02:29:15;98799.50;;;16.89;81.71
18988;BME280;5494;51.796;10.952;2023-07-13T02:31:45;98805.47;;;16.91;80.49
18988;BME280;5494;51.796;10.952;2023-07-13T02:34:12;98821.34;;;17.01;78.93
18988;BME280;5494;51.796;10.952;2023-07-13T02:36:40;98819.06;;;16.96;79.61
18988;BME280;5494;51.796;10.952;2023-07-13T02:39:09;98821.00;;;16.94;78.86
18988;BME280;5494;51.796;10.952;2023-07-13T02:41:39;98813.34;;;16.91;77.72
18988;BME280;5494;51.796;10.952;2023-07-13T02:44:07;98807.34;;;17.11;80.63
18988;BME280;5494;51.796;10.952;2023-07-13T02:46:37;98803.91;;;17.00;91.01
18988;BME280;5494;51.796;10.952;2023-07-13T02:49:06;98803.22;;;16.86;96.17
18988;BME280;5494;51.796;10.952;2023-07-13T02:51:34;98800.34;;;16.56;100.00
18988;BME280;5494;51.796;10.952;2023-07-13T02:54:03;98814.63;;;16.30;100.00
18988;BME280;5494;51.796;10.952;2023-07-13T02:56:32;98803.63;;;16.13;100.00
18988;BME280;5494;51.796;10.952;2023-07-13T02:59:01;98809.47;;;16.06;100.00
18988;BME280;5494;51.796;10.952;2023-07-13T03:01:29;98807.03;;;15.92;100.00
18988;BME280;5494;51.796;10.952;2023-07-13T03:04:01;98807.63;;;15.84;100.00
18988;BME280;5494;51.796;10.952;2023-07-13T03:06:33;98809.19;;;15.87;100.00
18988;BME280;5494;51.796;10.952;2023-07-13T03:09:03;98806.34;;;15.90;100.00
18988;BME280;5494;51.796;10.952;2023-07-13T03:11:34;98816.59;;;15.93;100.00
18988;BME280;5494;51.796;10.952;2023-07-13T03:14:11;98811.59;;;15.90;100.00
18988;BME280;5494;51.796;10.952;2023-07-13T03:16:40;98807.84;;;15.81;100.00
18988;BME280;5494;51.796;10.952;2023-07-13T03:19:09;98807.97;;;15.80;100.00
18988;BME280;5494;51.796;10.952;2023-07-13T03:21:38;98804.88;;;15.74;100.00
18988;BME280;5494;51.796;10.952;2023-07-13T03:24:07;98809.16;;;15.75;100.00
18988;BME280;5494;51.796;10.952;2023-07-13T03:26:35;98810.09;;;15.74;100.00
18988;BME280;5494;51.796;10.952;2023-07-13T03:29:04;98810.81;;;15.76;100.00
18988;BME280;5494;51.796;10.952;2023-07-13T03:31:35;98809.91;;;15.89;100.00
18988;BME280;5494;51.796;10.952;2023-07-13T03:34:04;98809.66;;;15.92;100.00
18988;BME280;5494;51.796;10.952;2023-07-13T03:36:33;98821.59;;;15.96;100.00
18988;BME280;5494;51.796;10.952;2023-07-13T03:39:05;98827.34;;;16.01;100.00
18988;BME280;5494;51.796;10.952;2023-07-13T03:41:47;98827.84;;;16.17;100.00
18988;BME280;5494;51.796;10.952;2023-07-13T03:44:17;98820.72;;;16.41;95.56
18988;BME280;5494;51.796;10.952;2023-07-13T03:46:49;98827.41;;;16.45;99.58
18988;BME280;5494;51.796;10.952;2023-07-13T03:49:17;98832.28;;;16.28;98.88
18988;BME280;5494;51.796;10.952;2023-07-13T03:51:46;98832.84;;;16.20;99.27
18988;BME280;5494;51.796;10.952;2023-07-13T03:54:18;98843.25;;;16.33;98.97
18988;BME280;5494;51.796;10.952;2023-07-13T03:56:47;98848.41;;;16.45;99.42
18988;BME280;5494;51.796;10.952;2023-07-13T03:59:16;98847.94;;;16.51;96.40
18988;BME280;5494;51.796;10.952;2023-07-13T04:01:45;98851.50;;;16.50;95.78
18988;BME280;5494;51.796;10.952;2023-07-13T04:04:13;98850.38;;;16.66;95.04
18988;BME280;5494;51.796;10.952;2023-07-13T04:06:42;98850.22;;;16.89;93.63
18988;BME280;5494;51.796;10.952;2023-07-13T04:09:12;98866.53;;;17.15;90.47
18988;BME280;5494;51.796;10.952;2023-07-13T04:11:41;98865.44;;;17.40;87.85
18988;BME280;5494;51.796;10.952;2023-07-13T04:14:09;98864.44;;;17.63;84.93
18988;BME280;5494;51.796;10.952;2023-07-13T04:16:38;98871.19;;;18.09;80.98
18988;BME280;5494;51.796;10.952;2023-07-13T04:19:06;98865.72;;;18.22;80.20
18988;BME280;5494;51.796;10.952;2023-07-13T04:21:34;98865.63;;;18.54;73.54
18988;BME280;5494;51.796;10.952;2023-07-13T04:24:02;98874.31;;;18.96;69.66
18988;BME280;5494;51.796;10.952;2023-07-13T04:26:32;98871.53;;;19.27;67.74
18988;BME280;5494;51.796;10.952;2023-07-13T04:29:03;98873.25;;;19.48;65.73
18988;BME280;5494;51.796;10.952;2023-07-13T04:31:31;98870.84;;;19.45;64.98
18988;BME280;5494;51.796;10.952;2023-07-13T04:34:00;98879.88;;;19.42;65.06
18988;BME280;5494;51.796;10.952;2023-07-13T04:36:28;98870.13;;;19.33;64.99
18988;BME280;5494;51.796;10.952;2023-07-13T04:38:56;98878.56;;;19.17;66.40
18988;BME280;5494;51.796;10.952;2023-07-13T04:41:24;98873.28;;;19.17;66.36
18988;BME280;5494;51.796;10.952;2023-07-13T04:43:53;98870.03;;;18.95;68.64
18988;BME280;5494;51.796;10.952;2023-07-13T04:46:23;98882.38;;;19.04;68.79
18988;BME280;5494;51.796;10.952;2023-07-13T04:48:51;98869.09;;;19.05;68.98
18988;BME280;5494;51.796;10.952;2023-07-13T04:51:20;98871.25;;;18.91;69.58
18988;BME280;5494;51.796;10.952;2023-07-13T04:53:48;98866.25;;;18.87;70.19
18988;BME280;5494;51.796;10.952;2023-07-13T04:56:22;98869.22;;;19.04;70.40
18988;BME280;5494;51.796;10.952;2023-07-13T04:58:50;98870.50;;;19.19;69.52
18988;BME280;5494;51.796;10.952;2023-07-13T05:01:19;98873.41;;;19.65;67.24
18988;BME280;5494;51.796;10.952;2023-07-13T05:03:47;98878.28;;;19.89;65.05
18988;BME280;5494;51.796;10.952;2023-07-13T05:06:15;98870.94;;;20.12;64.07
18988;BME280;5494;51.796;10.952;2023-07-13T05:08:43;98884.53;;;20.46;62.34
18988;BME280;5494;51.796;10.952;2023-07-13T05:11:11;98880.16;;;20.55;61.13
18988;BME280;5494;51.796;10.952;2023-07-13T05:13:39;98878.09;;;20.29;62.40
18988;BME280;5494;51.796;10.952;2023-07-13T05:16:08;98882.16;;;20.14;62.87
18988;BME280;5494;51.796;10.952;2023-07-13T05:18:37;98882.84;;;20.16;63.03
18988;BME280;5494;51.796;10.952;2023-07-13T05:21:11;98876.75;;;20.16;63.20
18988;BME280;5494;51.796;10.952;2023-07-13T05:23:40;98881.63;;;20.11;63.29
18988;BME280;5494;51.796;10.952;2023-07-13T05:26:10;98888.94;;;20.26;62.90
18988;BME280;5494;51.796;10.952;2023-07-13T05:28:38;98879.22;;;20.27;62.07
18988;BME280;5494;51.796;10.952;2023-07-13T05:31:07;98879.25;;;20.46;61.50
18988;BME280;5494;51.796;10.952;2023-07-13T05:33:38;98875.53;;;21.03;59.29
18988;BME280;5494;51.796;10.952;2023-07-13T05:36:06;98872.72;;;22.05;56.20
18988;BME280;5494;51.796;10.952;2023-07-13T05:38:37;98873.97;;;22.88;51.92
18988;BME280;5494;51.796;10.952;2023-07-13T05:41:06;98867.97;;;23.94;48.37
18988;BME280;5494;51.796;10.952;2023-07-13T05:43:34;98879.13;;;24.46;45.55
18988;BME280;5494;51.796;10.952;2023-07-13T05:46:03;98871.75;;;24.81;44.86
18988;BME280;5494;51.796;10.952;2023-07-13T05:48:31;98871.28;;;25.86;42.54
18988;BME280;5494;51.796;10.952;2023-07-13T05:51:01;98864.47;;;27.11;39.35
18988;BME280;5494;51.796;10.952;2023-07-13T05:53:29;98861.50;;;28.13;37.35
18988;BME280;5494;51.796;10.952;2023-07-13T05:55:57;98866.72;;;29.12;35.70
18988;BME280;5494;51.796;10.952;2023-07-13T05:58:28;98860.06;;;30.56;32.16
18988;BME280;5494;51.796;10.952;2023-07-13T06:01:02;98866.66;;;30.33;32.81
18988;BME280;5494;51.796;10.952;2023-07-13T06:03:32;98873.47;;;30.49;32.60
18988;BME280;5494;51.796;10.952;2023-07-13T06:06:02;98870.38;;;30.32;32.22
18988;BME280;5494;51.796;10.952;2023-07-13T06:08:30;98875.41;;;31.19;31.38
18988;BME280;5494;51.796;10.952;2023-07-13T06:11:05;98863.13;;;31.43;31.10
18988;BME280;5494;51.796;10.952;2023-07-13T06:13:34;98866.91;;;32.05;30.28
18988;BME280;5494;51.796;10.952;2023-07-13T06:16:03;98869.94;;;31.84;29.97
18988;BME280;5494;51.796;10.952;2023-07-13T06:18:33;98868.78;;;31.73;30.17
18988;BME280;5494;51.796;10.952;2023-07-13T06:21:06;98871.16;;;30.79;31.23
18988;BME280;5494;51.796;10.952;2023-07-13T06:23:35;98869.66;;;31.16;31.40
18988;BME280;5494;51.796;10.952;2023-07-13T06:26:08;98874.56;;;31.19;31.73
18988;BME280;5494;51.796;10.952;2023-07-13T06:28:37;98871.16;;;32.44;29.33
18988;BME280;5494;51.796;10.952;2023-07-13T06:31:09;98873.31;;;32.60;28.69
18988;BME280;5494;51.796;10.952;2023-07-13T06:33:38;98874.63;;;32.26;29.60
18988;BME280;5494;51.796;10.952;2023-07-13T06:36:08;98875.09;;;33.46;28.74
18988;BME280;5494;51.796;10.952;2023-07-13T06:38:37;98883.34;;;33.81;27.67
18988;BME280;5494;51.796;10.952;2023-07-13T06:41:06;98888.00;;;32.39;29.89
18988;BME280;5494;51.796;10.952;2023-07-13T06:43:35;98887.81;;;33.02;29.04
18988;BME280;5494;51.796;10.952;2023-07-13T06:46:03;98889.50;;;32.78;28.88
18988;BME280;5494;51.796;10.952;2023-07-13T06:48:31;98884.50;;;32.57;29.34
18988;BME280;5494;51.796;10.952;2023-07-13T06:50:59;98890.84;;;32.20;29.58
18988;BME280;5494;51.796;10.952;2023-07-13T06:53:28;98891.22;;;31.92;30.22
18988;BME280;5494;51.796;10.952;2023-07-13T06:55:57;98889.63;;;32.09;29.85
18988;BME280;5494;51.796;10.952;2023-07-13T06:58:25;98893.94;;;32.17;30.05
18988;BME280;5494;51.796;10.952;2023-07-13T07:00:53;98890.78;;;33.12;28.23
18988;BME280;5494;51.796;10.952;2023-07-13T07:03:22;98886.53;;;32.37;28.43
18988;BME280;5494;51.796;10.952;2023-07-13T07:05:50;98887.88;;;32.53;28.48
18988;BME280;5494;51.796;10.952;2023-07-13T07:08:18;98898.91;;;31.37;30.16
18988;BME280;5494;51.796;10.952;2023-07-13T07:10:48;98895.34;;;31.50;30.21
18988;BME280;5494;51.796;10.952;2023-07-13T07:13:20;98897.53;;;31.15;30.39
18988;BME280;5494;51.796;10.952;2023-07-13T07:15:50;98895.09;;;31.58;29.41
18988;BME280;5494;51.796;10.952;2023-07-13T07:18:18;98901.31;;;30.87;30.43
18988;BME280;5494;51.796;10.952;2023-07-13T07:20:48;98898.66;;;30.61;29.74
18988;BME280;5494;51.796;10.952;2023-07-13T07:23:16;98906.25;;;29.44;31.19
18988;BME280;5494;51.796;10.952;2023-07-13T07:25:46;98911.19;;;29.06;31.74
18988;BME280;5494;51.796;10.952;2023-07-13T07:28:16;98908.28;;;28.73;31.43
18988;BME280;5494;51.796;10.952;2023-07-13T07:30:48;98910.44;;;29.19;31.62
18988;BME280;5494;51.796;10.952;2023-07-13T07:33:19;98903.22;;;29.60;31.31
18988;BME280;5494;51.796;10.952;2023-07-13T07:35:48;98910.53;;;29.32;30.43
18988;BME280;5494;51.796;10.952;2023-07-13T07:38:19;98905.25;;;29.45;30.00
18988;BME280;5494;51.796;10.952;2023-07-13T07:40:52;98886.78;;;29.29;30.20
18988;BME280;5494;51.796;10.952;2023-07-13T07:43:25;98894.59;;;29.24;30.73
18988;BME280;5494;51.796;10.952;2023-07-13T07:45:53;98899.19;;;28.95;31.31
18988;BME280;5494;51.796;10.952;2023-07-13T07:48:21;98903.97;;;29.07;31.17
18988;BME280;5494;51.796;10.952;2023-07-13T07:50:49;98895.28;;;28.98;30.94
18988;BME280;5494;51.796;10.952;2023-07-13T07:53:17;98902.78;;;29.50;31.00
18988;BME280;5494;51.796;10.952;2023-07-13T07:55:45;98896.81;;;29.61;29.31
18988;BME280;5494;51.796;10.952;2023-07-13T07:58:17;98894.31;;;29.53;29.61
18988;BME280;5494;51.796;10.952;2023-07-13T08:01:06;98903.28;;;29.32;29.74
18988;BME280;5494;51.796;10.952;2023-07-13T08:03:38;98895.38;;;29.52;29.45
18988;BME280;5494;51.796;10.952;2023-07-13T08:06:09;98900.94;;;29.51;30.01
18988;BME280;5494;51.796;10.952;2023-07-13T08:08:40;98899.34;;;29.69;30.03
18988;BME280;5494;51.796;10.952;2023-07-13T08:11:09;98898.81;;;29.94;30.80
18988;BME280;5494;51.796;10.952;2023-07-13T08:13:41;98895.97;;;30.74;29.13
18988;BME280;5494;51.796;10.952;2023-07-13T08:16:10;98904.41;;;30.84;29.16
18988;BME280;5494;51.796;10.952;2023-07-13T08:18:38;98906.69;;;30.74;29.83
18988;BME280;5494;51.796;10.952;2023-07-13T08:21:08;98904.19;;;31.06;29.59
18988;BME280;5494;51.796;10.952;2023-07-13T08:23:37;98908.91;;;31.04;29.15
18988;BME280;5494;51.796;10.952;2023-07-13T08:26:05;98908.78;;;30.52;29.77
18988;BME280;5494;51.796;10.952;2023-07-13T08:28:34;98905.47;;;30.64;29.17
18988;BME280;5494;51.796;10.952;2023-07-13T08:31:02;98902.97;;;30.82;28.78
18988;BME280;5494;51.796;10.952;2023-07-13T08:33:34;98914.28;;;30.05;29.37
18988;BME280;5494;51.796;10.952;2023-07-13T08:36:04;98912.06;;;30.35;29.94
18988;BME280;5494;51.796;10.952;2023-07-13T08:38:33;98916.59;;;30.21;29.54
18988;BME280;5494;51.796;10.952;2023-07-13T08:41:11;98896.56;;;30.24;29.56
18988;BME280;5494;51.796;10.952;2023-07-13T08:43:46;98912.25;;;30.20;29.76
18988;BME280;5494;51.796;10.952;2023-07-13T08:46:23;98914.97;;;30.66;29.47
18988;BME280;5494;51.796;10.952;2023-07-13T08:49:01;98908.72;;;30.99;28.29
18988;BME280;5494;51.796;10.952;2023-07-13T08:51:39;98913.72;;;30.75;29.01
18988;BME280;5494;51.796;10.952;2023-07-13T08:54:19;98903.19;;;30.41;29.62
18988;BME280;5494;51.796;10.952;2023-07-13T08:56:50;98905.88;;;30.21;29.93
18988;BME280;5494;51.796;10.952;2023-07-13T08:59:25;98919.66;;;30.05;30.18
18988;BME280;5494;51.796;10.952;2023-07-13T09:02:18;98909.78;;;30.71;29.45
18988;BME280;5494;51.796;10.952;2023-07-13T09:04:54;98901.06;;;31.15;28.70
18988;BME280;5494;51.796;10.952;2023-07-13T09:07:39;98909.19;;;30.63;29.31
18988;BME280;5494;51.796;10.952;2023-07-13T09:10:17;98910.22;;;30.75;29.62
18988;BME280;5494;51.796;10.952;2023-07-13T09:13:04;98903.03;;;31.46;28.72
18988;BME280;5494;51.796;10.952;2023-07-13T09:15:39;98914.75;;;31.65;27.83
18988;BME280;5494;51.796;10.952;2023-07-13T09:18:15;98911.59;;;31.68;27.68
18988;BME280;5494;51.796;10.952;2023-07-13T09:20:51;98915.53;;;32.03;27.79
18988;BME280;5494;51.796;10.952;2023-07-13T09:23:28;98911.66;;;31.99;27.79
18988;BME280;5494;51.796;10.952;2023-07-13T09:26:04;98916.00;;;31.56;28.08
18988;BME280;5494;51.796;10.952;2023-07-13T09:28:38;98925.69;;;30.73;29.04
18988;BME280;5494;51.796;10.952;2023-07-13T09:31:13;98929.16;;;30.07;29.74
18988;BME280;5494;51.796;10.952;2023-07-13T09:33:42;98926.91;;;29.16;31.38
18988;BME280;5494;51.796;10.952;2023-07-13T09:36:22;98931.63;;;29.14;31.67
18988;BME280;5494;51.796;10.952;2023-07-13T09:39:00;98937.59;;;29.09;31.89
18988;BME280;5494;51.796;10.952;2023-07-13T09:41:40;98935.94;;;29.08;31.46
18988;BME280;5494;51.796;10.952;2023-07-13T09:44:11;98937.78;;;29.42;31.31
18988;BME280;5494;51.796;10.952;2023-07-13T09:46:45;98929.88;;;29.82;30.42
18988;BME280;5494;51.796;10.952;2023-07-13T09:49:13;98931.91;;;29.66;30.38
18988;BME280;5494;51.796;10.952;2023-07-13T09:51:43;98936.22;;;29.26;31.11
18988;BME280;5494;51.796;10.952;2023-07-13T09:54:21;98934.53;;;30.07;31.19
18988;BME280;5494;51.796;10.952;2023-07-13T09:56:54;98929.81;;;30.42;29.96
18988;BME280;5494;51.796;10.952;2023-07-13T09:59:29;98926.94;;;30.50;29.45
18988;BME280;5494;51.796;10.952;2023-07-13T10:01:58;98948.16;;;29.58;31.84
18988;BME280;5494;51.796;10.952;2023-07-13T10:04:33;98940.06;;;29.45;31.36
18988;BME280;5494;51.796;10.952;2023-07-13T10:07:08;98940.28;;;29.44;31.97
18988;BME280;5494;51.796;10.952;2023-07-13T10:09:56;98936.94;;;29.42;32.01
18988;BME280;5494;51.796;10.952;2023-07-13T10:12:25;98934.50;;;29.12;31.89
18988;BME280;5494;51.796;10.952;2023-07-13T10:14:57;98942.38;;;29.20;31.62
18988;BME280;5494;51.796;10.952;2023-07-13T10:17:48;98939.09;;;29.59;30.85
18988;BME280;5494;51.796;10.952;2023-07-13T10:20:18;98939.78;;;29.81;30.76
18988;BME280;5494;51.796;10.952;2023-07-13T10:22:55;98942.59;;;28.91;31.65
18988;BME280;5494;51.796;10.952;2023-07-13T10:25:31;98947.16;;;28.69;31.95
18988;BME280;5494;51.796;10.952;2023-07-13T10:28:06;98937.97;;;28.78;31.81
18988;BME280;5494;51.796;10.952;2023-07-13T10:30:45;98936.19;;;28.64;32.58
18988;BME280;5494;51.796;10.952;2023-07-13T10:33:14;98941.03;;;28.26;33.50
18988;BME280;5494;51.796;10.952;2023-07-13T10:35:44;98946.88;;;28.85;32.44
18988;BME280;5494;51.796;10.952;2023-07-13T10:38:21;98942.84;;;28.96;31.87
18988;BME280;5494;51.796;10.952;2023-07-13T10:40:59;98947.84;;;29.06;31.60
18988;BME280;5494;51.796;10.952;2023-07-13T10:43:36;98947.03;;;28.28;31.95
18988;BME280;5494;51.796;10.952;2023-07-13T10:46:08;98946.38;;;28.47;32.60
18988;BME280;5494;51.796;10.952;2023-07-13T10:48:40;98935.47;;;28.49;31.65
18988;BME280;5494;51.796;10.952;2023-07-13T10:51:13;98957.78;;;27.48;32.88
18988;BME280;5494;51.796;10.952;2023-07-13T10:53:43;98954.66;;;27.30;33.34
18988;BME280;5494;51.796;10.952;2023-07-13T10:56:27;98958.16;;;27.30;33.73
18988;BME280;5494;51.796;10.952;2023-07-13T10:59:12;98957.25;;;27.38;33.66
18988;BME280;5494;51.796;10.952;2023-07-13T11:01:54;98949.03;;;27.69;33.41
18988;BME280;5494;51.796;10.952;2023-07-13T11:04:24;98953.44;;;27.62;33.59
18988;BME280;5494;51.796;10.952;2023-07-13T11:06:58;98950.81;;;27.83;34.23
18988;BME280;5494;51.796;10.952;2023-07-13T11:09:36;98947.41;;;27.89;33.96
18988;BME280;5494;51.796;10.952;2023-07-13T11:12:28;98948.88;;;27.92;34.20
18988;BME280;5494;51.796;10.952;2023-07-13T11:15:14;98948.66;;;27.72;34.09
18988;BME280;5494;51.796;10.952;2023-07-13T11:17:51;98946.75;;;27.66;33.48
18988;BME280;5494;51.796;10.952;2023-07-13T11:20:39;98944.88;;;27.66;33.48
18988;BME280;5494;51.796;10.952;2023-07-13T11:23:29;98943.31;;;27.42;33.41
18988;BME280;5494;51.796;10.952;2023-07-13T11:26:00;98948.03;;;27.91;32.89
18988;BME280;5494;51.796;10.952;2023-07-13T11:28:31;98942.56;;;27.78;32.90
18988;BME280;5494;51.796;10.952;2023-07-13T11:31:14;98939.09;;;27.33;33.23
18988;BME280;5494;51.796;10.952;2023-07-13T11:33:55;98944.94;;;26.85;34.02
18988;BME280;5494;51.796;10.952;2023-07-13T11:36:31;98951.59;;;26.89;34.56
18988;BME280;5494;51.796;10.952;2023-07-13T11:39:15;98954.19;;;26.97;34.78
18988;BME280;5494;51.796;10.952;2023-07-13T11:41:52;98954.56;;;27.23;35.09
18988;BME280;5494;51.796;10.952;2023-07-13T11:44:25;98946.66;;;27.44;34.23
18988;BME280;5494;51.796;10.952;2023-07-13T11:46:56;98940.84;;;27.56;33.48
18988;BME280;5494;51.796;10.952;2023-07-13T11:49:31;98946.53;;;27.67;33.92
18988;BME280;5494;51.796;10.952;2023-07-13T11:52:00;98945.22;;;27.78;33.58
18988;BME280;5494;51.796;10.952;2023-07-13T11:54:33;98952.44;;;27.48;33.85
18988;BME280;5494;51.796;10.952;2023-07-13T11:57:25;98941.75;;;27.33;33.87
18988;BME280;5494;51.796;10.952;2023-07-13T11:59:55;98949.69;;;27.27;34.45
18988;BME280;5494;51.796;10.952;2023-07-13T12:02:30;98950.78;;;27.18;34.47
18988;BME280;5494;51.796;10.952;2023-07-13T12:05:02;98945.91;;;27.07;35.55
18988;BME280;5494;51.796;10.952;2023-07-13T12:07:33;98952.19;;;26.76;35.42
18988;BME280;5494;51.796;10.952;2023-07-13T12:10:02;98947.56;;;27.08;35.62
18988;BME280;5494;51.796;10.952;2023-07-13T12:12:32;98942.41;;;27.21;35.03
18988;BME280;5494;51.796;10.952;2023-07-13T12:15:00;98942.59;;;27.19;35.05
18988;BME280;5494;51.796;10.952;2023-07-13T12:17:28;98949.84;;;27.25;34.62
18988;BME280;5494;51.796;10.952;2023-07-13T12:19:57;98952.09;;;27.07;34.48
18988;BME280;5494;51.796;10.952;2023-07-13T12:22:25;98945.25;;;27.19;35.34
18988;BME280;5494;51.796;10.952;2023-07-13T12:24:54;98946.56;;;27.23;34.06
18988;BME280;5494;51.796;10.952;2023-07-13T12:27:26;98945.06;;;27.06;33.92
18988;BME280;5494;51.796;10.952;2023-07-13T12:30:01;98946.81;;;26.99;34.66
18988;BME280;5494;51.796;10.952;2023-07-13T12:32:32;98947.94;;;26.90;34.87
18988;BME280;5494;51.796;10.952;2023-07-13T12:35:17;98951.66;;;26.81;34.85
18988;BME280;5494;51.796;10.952;2023-07-13T12:37:51;98945.78;;;26.85;34.67
18988;BME280;5494;51.796;10.952;2023-07-13T12:40:21;98946.13;;;26.67;34.82
18988;BME280;5494;51.796;10.952;2023-07-13T12:42:54;98940.69;;;26.61;34.62
18988;BME280;5494;51.796;10.952;2023-07-13T12:45:26;98943.09;;;26.33;35.17
18988;BME280;5494;51.796;10.952;2023-07-13T12:47:58;98953.66;;;26.18;35.30
18988;BME280;5494;51.796;10.952;2023-07-13T12:50:34;98955.50;;;26.18;34.69
18988;BME280;5494;51.796;10.952;2023-07-13T12:53:06;98953.53;;;26.12;33.86
18988;BME280;5494;51.796;10.952;2023-07-13T12:55:43;98952.81;;;26.26;33.94
18988;BME280;5494;51.796;10.952;2023-07-13T12:58:20;98941.34;;;26.17;34.71
18988;BME280;5494;51.796;10.952;2023-07-13T13:00:53;98935.03;;;26.41;34.97
18988;BME280;5494;51.796;10.952;2023-07-13T13:03:30;98946.31;;;26.20;34.47
18988;BME280;5494;51.796;10.952;2023-07-13T13:06:02;98935.88;;;26.56;34.42
18988;BME280;5494;51.796;10.952;2023-07-13T13:08:35;98951.97;;;26.63;35.69
18988;BME280;5494;51.796;10.952;2023-07-13T13:11:04;98946.41;;;26.73;34.50
18988;BME280;5494;51.796;10.952;2023-07-13T13:13:32;98947.38;;;26.57;35.05
18988;BME280;5494;51.796;10.952;2023-07-13T13:16:09;98944.19;;;26.61;34.66
18988;BME280;5494;51.796;10.952;2023-07-13T13:18:40;98940.78;;;26.67;34.80
18988;BME280;5494;51.796;10.952;2023-07-13T13:21:09;98946.56;;;26.71;35.19